Latitude: N 50° 09' 49" Longitude: W 05° 11' 53" Elevation: 168m ASL

There are 19 visitors online

Adverts
Latest METAR Data

Below are the latest METARs ("Meteorological Services to Airmen Reports"), for RNAS Culdrose and Newquay Airport.

EGDR - RNAS Culdrose
Distance from station: SW 6mi, 9km
Updated: Thu, 21-Mar-2019 9:50am GMT
Mist, Overcast
Mist, Overcast
 Wind from SSW
Wind: SSW 6 mph , 9 km/h
Temperature: 50°F , 10°C
Wind Chill: 48°F , 9°C
Dew Point: 48°F , 9°C
Humidity: 94%
Barometer: 30.56 inHg , 1035 hPa
Summary: Mist
Clouds: Overcast
Visibility: 2 miles , 3 km
Cloud details: Few Clouds 100 ft
Mostly Cloudy 400 ft
Overcast 600 ft
2019/03/21 09:50 EGDR 210950Z 20005KT 3000 BR FEW001 BKN004 OVC006 10/09 Q1035 REDZ YLO2 TEMPO 500 -DZ FEW000 BKN001 RED
EGHQ - Newquay Airport
Distance from station: NE 21mi, 34km
Updated: Thu, 21-Mar-2019 9:50am GMT
Mist, Mostly cloudy
Mist, Mostly cloudy
 Wind from S
Wind: S 8 mph , 13 km/h
Temperature: 50°F , 10°C
Wind Chill: 47°F , 8°C
Dew Point: 50°F , 10°C
Humidity: 100%
Barometer: 30.56 inHg , 1035 hPa
Summary: Mist
Clouds: Mostly Cloudy
Visibility: 1 mile , 1 km
Cloud details: Mostly Cloudy 200 ft
2019/03/21 09:50 EGHQ 210950Z 18007KT 1200 R12/P1500 BR BKN002 10/10 Q1035
 
EGTE - Exeter Airport
Distance from station: ENE 88mi, 141km
Updated: Thu, 21-Mar-2019 9:50am GMT
Mostly Cloudy
Mostly Cloudy
 Wind from SSW
Wind: SSW 5 mph , 7 km/h
Temperature: 52°F , 11°C
Dew Point: 48°F , 9°C
Humidity: 88%
Barometer: 30.56 inHg , 1035 hPa
Clouds: Mostly Cloudy
Visibility: 6 miles , 10 km
Cloud details: Few Clouds 800 ft
Mostly Cloudy 1200 ft
2019/03/21 09:50 EGTE 210950Z 21004KT 9999 FEW008 BKN012 11/09 Q1035
EGHE - St Marys, IOS
Distance from station: W 51mi, 82km
Updated: Thu, 21-Mar-2019 9:50am GMT
Mist, Overcast
Mist, Overcast
 Wind from S
Wind: S 12 mph , 19 km/h
Temperature: 50°F , 10°C
Wind Chill: 45°F , 7°C
Dew Point: 50°F , 10°C
Humidity: 100%
Barometer: 30.56 inHg , 1035 hPa
Summary: Mist
Clouds: Overcast
Visibility: 1 mile , 2 km
Cloud details: Partly Cloudy 100 ft
Mostly Cloudy 400 ft
Overcast 600 ft
2019/03/21 09:50 EGHE 210950Z 19010KT 2000 BR SCT001 BKN004 OVC006 10/10 Q1035

Metar display script from Saratoga-Weather.org

UK - WEATHER STATION TOPSITES - UK World Weather Websites

This is a private weather station, never base important decisions or events on data from this weather station. Although every effort has been made to make the data as accurate as possible it does not meet MetOffice standards. It is proved as a guide of local weather conditions. We accept no liability for any loss which may arise from use of the data.

Copyright © Carnkie Weather 2009 - 2019.